Terminal Aerodrome Forecast
Issued by NWS Blacksburg, VA

Home | Current Version | Previous Version | Text Only | Print | Product List | Glossary On
Versions: 1 2 3 4 5 6 7 8 9 10 11 12 13 14 15 16 17 18 19 20 21 22 23 24 25 26 27 28
000
FTUS41 KRNK 252033 AAA
TAFROA
TAF AMD
KROA 252033Z 2521/2618 11005KT 4SM BR SCT005 OVC009
      TEMPO 2521/2523 SCT009 OVC015
     FM252300 09004KT 3SM -RADZ BR OVC007
     FM261500 36005KT P6SM SCT007 OVC015=

USA.gov is the U.S. government's official web portal to all federal, state and local government web resources and services.